createdAt,value
2018-06-05T00:01:16.757Z,8.40
2018-06-05T00:03:46.111Z,9.63
2018-06-05T00:06:15.382Z,10.13
2018-06-05T00:08:44.697Z,9.47
2018-06-05T00:11:13.972Z,9.07
2018-06-05T00:13:42.958Z,8.83
2018-06-05T00:16:12.115Z,9.70
2018-06-05T00:18:41.424Z,8.97
2018-06-05T00:21:10.714Z,10.33
2018-06-05T00:23:40.062Z,10.23
2018-06-05T00:26:09.024Z,9.27
2018-06-05T00:28:38.224Z,9.70
2018-06-05T00:31:07.518Z,8.93
2018-06-05T00:33:36.814Z,9.00
2018-06-05T00:36:06.220Z,9.03
2018-06-05T00:38:35.475Z,8.90
2018-06-05T00:41:04.770Z,9.20
2018-06-05T00:43:34.157Z,8.80
2018-06-05T00:46:03.684Z,9.53
2018-06-05T00:48:33.127Z,9.60
2018-06-05T00:51:03.654Z,10.20
2018-06-05T00:53:32.968Z,10.17
2018-06-05T00:56:02.484Z,9.20
2018-06-05T00:58:31.771Z,9.17
2018-06-05T01:01:01.108Z,10.10
2018-06-05T01:03:30.390Z,8.50
2018-06-05T01:05:59.674Z,8.97
2018-06-05T01:08:28.968Z,10.37
2018-06-05T01:10:58.280Z,10.90
2018-06-05T01:13:27.560Z,10.07
2018-06-05T01:15:56.859Z,10.40
2018-06-05T01:18:26.130Z,10.57
2018-06-05T01:20:55.444Z,10.63
2018-06-05T01:23:24.747Z,10.33
2018-06-05T01:25:54.058Z,10.57
2018-06-05T01:28:23.360Z,10.13
2018-06-05T01:30:52.660Z,11.27
2018-06-05T01:33:21.962Z,10.80
2018-06-05T01:35:51.230Z,11.33
2018-06-05T01:38:20.566Z,11.40
2018-06-05T01:40:49.847Z,11.63
2018-06-05T01:43:19.147Z,9.57
2018-06-05T01:45:48.674Z,10.20
2018-06-05T01:48:18.110Z,10.33
2018-06-05T01:50:47.473Z,11.60
2018-06-05T01:53:16.947Z,12.80
2018-06-05T01:55:46.243Z,11.00
2018-06-05T01:58:15.540Z,12.33
2018-06-05T02:00:44.859Z,10.90
2018-06-05T02:03:14.174Z,10.83
2018-06-05T02:05:43.466Z,10.37
2018-06-05T02:08:12.766Z,10.93
2018-06-05T02:10:42.047Z,11.13
2018-06-05T02:13:11.372Z,11.37
2018-06-05T02:15:40.659Z,11.60
2018-06-05T02:18:10.031Z,9.97
2018-06-05T02:20:39.316Z,10.97
2018-06-05T02:23:08.630Z,10.43
2018-06-05T02:25:37.936Z,10.43
2018-06-05T02:28:07.203Z,10.83
2018-06-05T02:30:36.487Z,10.83
2018-06-05T02:33:05.764Z,10.83
2018-06-05T02:35:35.027Z,10.50
2018-06-05T02:38:04.475Z,10.30
2018-06-05T02:40:33.770Z,10.20
2018-06-05T02:43:03.110Z,10.37
2018-06-05T02:45:32.754Z,11.13
2018-06-05T02:48:02.100Z,10.20
2018-06-05T02:50:31.590Z,11.13
2018-06-05T02:53:00.841Z,11.73
2018-06-05T02:55:30.140Z,11.03
2018-06-05T02:57:59.434Z,11.43
2018-06-05T03:00:28.828Z,10.97
2018-06-05T03:02:58.137Z,11.93
2018-06-05T03:05:27.512Z,11.60
2018-06-05T03:07:56.863Z,11.53
2018-06-05T03:10:26.190Z,12.50
2018-06-05T03:12:55.587Z,12.57
2018-06-05T03:15:24.881Z,13.63
2018-06-05T03:17:54.218Z,12.80
2018-06-05T03:20:23.551Z,12.73
2018-06-05T03:22:52.903Z,12.33
2018-06-05T03:25:22.264Z,13.30
2018-06-05T03:27:51.602Z,12.77
2018-06-05T03:30:20.967Z,12.37
2018-06-05T03:32:50.344Z,11.60
2018-06-05T03:35:19.649Z,12.00
2018-06-05T03:37:48.931Z,11.77
2018-06-05T03:40:18.317Z,12.90
2018-06-05T03:42:47.818Z,11.60
2018-06-05T03:45:17.222Z,12.23
2018-06-05T03:47:46.630Z,12.20
2018-06-05T03:50:16.187Z,12.57
2018-06-05T03:52:45.564Z,12.40
2018-06-05T03:55:14.907Z,11.97
2018-06-05T03:57:44.275Z,13.17
2018-06-05T04:00:13.630Z,12.33
2018-06-05T04:02:42.910Z,12.87
2018-06-05T04:05:12.220Z,13.10
2018-06-05T04:07:41.514Z,13.97
2018-06-05T04:10:10.533Z,13.57
2018-06-05T04:12:39.719Z,13.63
2018-06-05T04:15:09.106Z,14.07
2018-06-05T04:17:38.520Z,14.43
2018-06-05T04:20:07.834Z,12.47
2018-06-05T04:22:37.127Z,14.07
2018-06-05T04:25:06.563Z,12.40
2018-06-05T04:27:35.939Z,13.20
2018-06-05T04:30:05.338Z,13.20
2018-06-05T04:32:34.684Z,13.20
2018-06-05T04:35:04.022Z,13.87
2018-06-05T04:37:33.086Z,12.40
2018-06-05T04:40:02.334Z,13.67
2018-06-05T04:42:31.798Z,12.93
2018-06-05T04:45:01.134Z,13.10
2018-06-05T04:47:30.490Z,13.97
2018-06-05T04:50:00.108Z,13.47
2018-06-05T04:52:29.645Z,14.73
2018-06-05T04:54:58.955Z,14.20
2018-06-05T04:57:28.299Z,14.47
2018-06-05T04:59:57.611Z,13.60
2018-06-05T05:02:26.930Z,15.23
2018-06-05T05:04:56.215Z,14.43
2018-06-05T05:07:25.577Z,14.37
2018-06-05T05:09:54.851Z,14.63
2018-06-05T05:12:24.179Z,13.27
2018-06-05T05:14:53.504Z,13.77
2018-06-05T05:17:22.810Z,13.60
2018-06-05T05:19:52.129Z,14.63
2018-06-05T05:22:21.439Z,15.37
2018-06-05T05:24:50.732Z,13.20
2018-06-05T05:27:20.062Z,15.07
2018-06-05T05:29:49.354Z,13.60
2018-06-05T05:32:18.665Z,13.40
2018-06-05T05:34:47.972Z,13.03
2018-06-05T05:37:17.211Z,13.33
2018-06-05T05:39:46.518Z,13.30
2018-06-05T05:42:15.819Z,13.73
2018-06-05T05:44:45.175Z,14.60
2018-06-05T05:47:14.694Z,13.37
2018-06-05T05:49:44.022Z,14.13
2018-06-05T05:52:13.335Z,13.23
2018-06-05T05:54:42.755Z,13.53
2018-06-05T05:57:12.090Z,11.90
2018-06-05T05:59:41.542Z,13.60
2018-06-05T06:02:10.916Z,13.20
2018-06-05T06:04:40.349Z,13.00
2018-06-05T06:07:09.678Z,13.83
2018-06-05T06:09:39.118Z,15.10
2018-06-05T06:12:08.438Z,13.10
2018-06-05T06:14:37.813Z,13.80
2018-06-05T06:17:07.180Z,13.43
2018-06-05T06:19:36.582Z,11.67
2018-06-05T06:22:05.989Z,11.97
2018-06-05T06:24:35.324Z,14.00
2018-06-05T06:27:04.685Z,12.93
2018-06-05T06:29:33.975Z,12.20
2018-06-05T06:32:03.346Z,11.70
2018-06-05T06:34:32.660Z,12.90
2018-06-05T06:37:02.028Z,11.03
2018-06-05T06:39:31.355Z,12.77
2018-06-05T06:42:00.677Z,12.57
2018-06-05T06:44:30.030Z,10.60
2018-06-05T06:46:59.395Z,11.60
2018-06-05T06:49:28.666Z,11.20
2018-06-05T06:51:58.032Z,12.10
2018-06-05T06:54:27.412Z,10.40
2018-06-05T06:56:56.737Z,11.07
2018-06-05T06:59:26.084Z,11.63
2018-06-05T07:01:55.445Z,11.20
2018-06-05T07:04:24.728Z,11.30
2018-06-05T07:06:54.150Z,11.20
2018-06-05T07:09:23.476Z,10.60
2018-06-05T07:11:52.879Z,10.70
2018-06-05T07:14:22.235Z,11.80
2018-06-05T07:16:51.602Z,10.93
2018-06-05T07:19:20.939Z,11.90
2018-06-05T07:21:50.291Z,11.60
2018-06-05T07:24:19.679Z,10.77
2018-06-05T07:26:49.003Z,11.30
2018-06-05T07:29:18.339Z,11.30
2018-06-05T07:31:47.671Z,12.20
2018-06-05T07:34:17.015Z,10.60
2018-06-05T07:36:46.343Z,11.60
2018-06-05T07:39:15.673Z,10.13
2018-06-05T07:41:44.988Z,9.87
2018-06-05T07:44:14.346Z,11.57
2018-06-05T07:46:43.672Z,10.20
2018-06-05T07:49:13.005Z,11.53
2018-06-05T07:51:42.334Z,9.33
2018-06-05T07:54:11.646Z,9.90
2018-06-05T07:56:41.035Z,10.80
2018-06-05T07:59:10.440Z,11.83
2018-06-05T08:01:39.842Z,11.47
2018-06-05T08:04:09.152Z,10.87
2018-06-05T08:06:38.464Z,11.03
2018-06-05T08:09:09.114Z,9.40
2018-06-05T08:11:38.472Z,10.40
2018-06-05T08:14:07.762Z,10.90
2018-06-05T08:16:37.156Z,10.67
2018-06-05T08:19:06.519Z,9.87
2018-06-05T08:21:35.800Z,9.27
2018-06-05T08:24:04.862Z,11.20
2018-06-05T08:26:50.934Z,8.90
2018-06-05T08:29:20.911Z,10.70
2018-06-05T08:31:50.287Z,9.80
2018-06-05T08:34:19.603Z,9.37
2018-06-05T08:36:48.961Z,10.47
2018-06-05T08:39:18.315Z,9.60
2018-06-05T08:41:47.760Z,9.57
2018-06-05T08:44:17.190Z,9.80
2018-06-05T08:46:46.620Z,8.77
2018-06-05T08:49:16.112Z,10.20
2018-06-05T08:51:45.431Z,10.23
2018-06-05T08:54:14.856Z,10.40
2018-06-05T08:56:44.261Z,8.60
2018-06-05T08:59:13.591Z,9.57
2018-06-05T09:01:42.912Z,11.07
2018-06-05T09:04:12.186Z,9.00
2018-06-05T09:06:41.528Z,8.33
2018-06-05T09:09:10.938Z,9.87
2018-06-05T09:11:40.347Z,10.47
2018-06-05T09:14:09.630Z,9.00
2018-06-05T09:16:39.013Z,9.83
2018-06-05T09:19:08.348Z,10.30
2018-06-05T09:21:37.700Z,9.30
2018-06-05T09:24:06.999Z,9.40
2018-06-05T09:26:36.341Z,9.50
2018-06-05T09:29:05.958Z,10.37
2018-06-05T09:31:35.294Z,9.83
2018-06-05T09:34:04.614Z,8.13
2018-06-05T09:36:33.963Z,9.17
2018-06-05T09:39:03.452Z,9.40
2018-06-05T09:41:32.883Z,10.07
2018-06-05T09:44:02.219Z,8.53
2018-06-05T09:46:31.598Z,8.50
2018-06-05T09:49:01.078Z,9.20
2018-06-05T09:51:30.409Z,9.37
2018-06-05T09:53:59.805Z,9.27
2018-06-05T09:56:29.142Z,9.50
2018-06-05T09:58:58.552Z,9.20
2018-06-05T10:01:27.957Z,8.70
2018-06-05T10:03:57.325Z,8.90
2018-06-05T10:06:26.728Z,8.00
2018-06-05T10:08:56.063Z,8.70
2018-06-05T10:11:25.369Z,7.40
2018-06-05T10:13:54.780Z,8.40
2018-06-05T10:16:24.186Z,7.90
2018-06-05T10:18:53.547Z,8.53
2018-06-05T10:21:22.895Z,8.37
2018-06-05T10:23:52.267Z,8.37
2018-06-05T10:26:21.622Z,7.43
2018-06-05T10:28:51.032Z,7.47
2018-06-05T10:31:20.353Z,8.30
2018-06-05T10:33:49.745Z,7.20
2018-06-05T10:36:18.793Z,7.97
2018-06-05T10:38:48.042Z,7.77
2018-06-05T10:41:17.391Z,7.33
2018-06-05T10:43:46.907Z,7.50
2018-06-05T10:46:16.215Z,7.70
2018-06-05T10:48:45.647Z,7.50
2018-06-05T10:51:15.002Z,7.37
2018-06-05T10:53:44.422Z,8.00
2018-06-05T10:56:13.766Z,6.67
2018-06-05T10:58:43.127Z,6.80
2018-06-05T11:01:12.459Z,6.20
2018-06-05T11:03:41.417Z,7.00
2018-06-05T11:06:10.624Z,6.50
2018-06-05T11:08:39.915Z,6.33
2018-06-05T11:11:09.224Z,5.90
2018-06-05T11:13:38.540Z,6.10
2018-06-05T11:16:07.882Z,6.10
2018-06-05T11:18:37.202Z,6.10
2018-06-05T11:21:06.531Z,6.40
2018-06-05T11:23:35.859Z,6.20
2018-06-05T11:26:05.206Z,7.27
2018-06-05T11:28:34.511Z,6.80
2018-06-05T11:31:03.843Z,7.43
2018-06-05T11:33:33.205Z,6.90
2018-06-05T11:36:02.500Z,6.70
2018-06-05T11:38:31.795Z,6.03
2018-06-05T11:41:01.115Z,6.17
2018-06-05T11:43:30.383Z,6.90
2018-06-05T11:45:59.728Z,5.80
2018-06-05T11:48:29.131Z,6.43
2018-06-05T11:50:58.540Z,6.33
2018-06-05T11:53:27.868Z,6.90
2018-06-05T11:55:57.194Z,6.97
2018-06-05T11:58:26.498Z,6.37
2018-06-05T12:00:55.880Z,5.87
2018-06-05T12:03:25.170Z,6.47
2018-06-05T12:05:54.508Z,6.30
2018-06-05T12:08:23.837Z,6.43
2018-06-05T12:10:53.147Z,7.47
2018-06-05T12:13:22.482Z,6.00
2018-06-05T12:15:51.850Z,6.53
2018-06-05T12:18:21.219Z,6.40
2018-06-05T12:20:50.562Z,6.53
2018-06-05T12:23:19.912Z,6.27
2018-06-05T12:25:49.261Z,6.77
2018-06-05T12:28:18.594Z,6.80
2018-06-05T12:30:47.919Z,6.00
2018-06-05T12:33:17.238Z,6.50
2018-06-05T12:35:46.636Z,6.10
2018-06-05T12:38:16.018Z,6.30
2018-06-05T12:40:45.425Z,6.30
2018-06-05T12:43:14.846Z,5.60
2018-06-05T12:45:44.226Z,6.23
2018-06-05T12:48:13.622Z,5.73
2018-06-05T12:50:42.936Z,6.10
2018-06-05T12:53:12.320Z,6.20
2018-06-05T12:55:41.627Z,6.00
2018-06-05T12:58:10.955Z,6.13
2018-06-05T13:00:40.296Z,6.17
2018-06-05T13:03:09.648Z,6.07
2018-06-05T13:05:39.057Z,6.60
2018-06-05T13:08:08.400Z,6.43
2018-06-05T13:10:37.799Z,5.33
2018-06-05T13:13:07.102Z,6.27
2018-06-05T13:15:36.181Z,6.07
2018-06-05T13:18:05.827Z,5.93
2018-06-05T13:20:35.183Z,5.47
2018-06-05T13:23:04.670Z,5.87
2018-06-05T13:25:34.009Z,5.63
2018-06-05T13:28:03.370Z,4.93
2018-06-05T13:30:32.772Z,5.23
2018-06-05T13:33:03.107Z,5.30
2018-06-05T13:35:32.486Z,5.33
2018-06-05T13:38:01.463Z,5.53
2018-06-05T13:40:30.794Z,5.63
2018-06-05T13:43:00.115Z,5.10
2018-06-05T13:45:29.497Z,5.23
2018-06-05T13:47:58.891Z,4.73
2018-06-05T13:50:28.515Z,5.07
2018-06-05T13:52:57.851Z,5.60
2018-06-05T13:55:27.234Z,5.70
2018-06-05T13:57:56.581Z,5.63
2018-06-05T14:00:25.906Z,5.87
2018-06-05T14:02:55.252Z,5.80
2018-06-05T14:05:24.605Z,5.23
2018-06-05T14:07:53.970Z,5.17
2018-06-05T14:10:23.289Z,5.60
2018-06-05T14:12:52.650Z,5.27
2018-06-05T14:15:21.981Z,5.77
2018-06-05T14:17:51.281Z,5.40
2018-06-05T14:20:20.618Z,6.17
2018-06-05T14:22:49.937Z,6.43
2018-06-05T14:25:19.222Z,5.47
2018-06-05T14:27:48.545Z,5.37
2018-06-05T14:30:17.882Z,6.03
2018-06-05T14:32:47.232Z,5.57
2018-06-05T14:35:16.520Z,5.43
2018-06-05T14:37:45.521Z,5.83
2018-06-05T14:40:14.690Z,5.73
2018-06-05T14:42:43.714Z,5.43
2018-06-05T14:45:12.964Z,5.73
2018-06-05T14:47:42.239Z,6.60
2018-06-05T14:50:11.518Z,6.00
2018-06-05T14:52:40.871Z,5.50
2018-06-05T14:55:10.205Z,6.40
2018-06-05T14:57:39.605Z,5.47
2018-06-05T15:00:08.915Z,5.20
2018-06-05T15:02:38.347Z,6.13
2018-06-05T15:05:07.662Z,6.67
2018-06-05T15:07:37.074Z,5.77
2018-06-05T15:10:06.391Z,7.10
2018-06-05T15:12:35.762Z,5.60
2018-06-05T15:15:05.414Z,6.33
2018-06-05T15:17:34.802Z,6.10
2018-06-05T15:20:04.232Z,6.03
2018-06-05T15:22:33.723Z,5.70
2018-06-05T15:25:03.316Z,6.00
2018-06-05T15:27:32.736Z,6.10
2018-06-05T15:30:01.748Z,5.93
2018-06-05T15:32:30.939Z,6.27
2018-06-05T15:34:59.891Z,5.20
2018-06-05T15:37:29.090Z,5.50
2018-06-05T15:39:58.434Z,5.23
2018-06-05T15:42:27.721Z,5.27
2018-06-05T15:44:57.047Z,5.10
2018-06-05T15:47:26.331Z,5.10
2018-06-05T15:49:55.718Z,4.70
2018-06-05T15:52:24.999Z,4.40
2018-06-05T15:54:54.340Z,4.50
2018-06-05T15:57:23.323Z,4.77
2018-06-05T15:59:52.627Z,4.60
2018-06-05T16:02:22.018Z,4.57
2018-06-05T16:04:51.389Z,4.83
2018-06-05T16:07:20.783Z,4.70
2018-06-05T16:09:50.199Z,4.53
2018-06-05T16:12:19.590Z,4.20
2018-06-05T16:14:48.967Z,4.30
2018-06-05T16:17:18.531Z,4.23
2018-06-05T16:19:48.088Z,3.80
2018-06-05T16:22:17.573Z,5.37
2018-06-05T16:24:47.058Z,6.73
2018-06-05T16:27:16.426Z,7.00
2018-06-05T16:29:45.787Z,7.23
2018-06-05T16:32:15.180Z,8.40
2018-06-05T16:34:44.554Z,6.90
2018-06-05T16:37:13.967Z,7.10
2018-06-05T16:39:43.356Z,6.87
2018-06-05T16:42:12.749Z,7.33
2018-06-05T16:44:42.272Z,7.47
2018-06-05T16:47:11.664Z,7.10
2018-06-05T16:49:41.070Z,7.60
2018-06-05T16:52:10.543Z,7.93
2018-06-05T16:54:40.023Z,6.90
2018-06-05T16:57:09.343Z,6.60
2018-06-05T16:59:38.753Z,7.20
2018-06-05T17:02:08.125Z,7.47
2018-06-05T17:04:37.539Z,6.93
2018-06-05T17:07:06.784Z,8.00
2018-06-05T17:09:36.111Z,7.27
2018-06-05T17:12:06.499Z,8.37
2018-06-05T17:14:35.879Z,7.57
2018-06-05T17:17:05.319Z,7.77
2018-06-05T17:19:34.683Z,8.07
2018-06-05T17:22:04.116Z,6.83
2018-06-05T17:24:33.541Z,7.53
2018-06-05T17:27:02.868Z,7.80
2018-06-05T17:29:31.814Z,7.33
2018-06-05T17:32:01.071Z,7.53
2018-06-05T17:34:30.378Z,6.43
2018-06-05T17:36:59.706Z,8.70
2018-06-05T17:39:28.967Z,7.70
2018-06-05T17:41:58.284Z,7.87
2018-06-05T17:44:27.602Z,8.50
2018-06-05T17:46:56.994Z,8.37
2018-06-05T17:49:26.296Z,7.57
2018-06-05T17:51:55.622Z,8.50
2018-06-05T17:54:24.927Z,6.30
2018-06-05T17:56:54.208Z,6.67
2018-06-05T17:59:23.542Z,6.53
2018-06-05T18:01:52.895Z,6.50
2018-06-05T18:04:22.211Z,6.17
2018-06-05T18:06:51.487Z,6.10
2018-06-05T18:09:20.875Z,5.90
2018-06-05T18:11:50.189Z,6.17
2018-06-05T18:14:19.523Z,5.83
2018-06-05T18:16:48.896Z,6.00
2018-06-05T18:19:18.282Z,5.87
2018-06-05T18:21:47.594Z,5.63
2018-06-05T18:24:17.107Z,5.90
2018-06-05T18:26:46.371Z,4.97
2018-06-05T18:29:15.678Z,5.73
2018-06-05T18:31:44.657Z,5.30
2018-06-05T18:34:13.850Z,4.80
2018-06-05T18:36:43.123Z,4.70
2018-06-05T18:39:12.518Z,4.23
2018-06-05T18:41:41.833Z,4.20
2018-06-05T18:44:11.139Z,5.03
2018-06-05T18:46:40.493Z,5.27
2018-06-05T18:49:09.806Z,4.50
2018-06-05T18:51:39.214Z,4.77
2018-06-05T18:54:08.619Z,4.10
2018-06-05T18:56:37.972Z,4.63
2018-06-05T18:59:07.359Z,4.73
2018-06-05T19:01:36.762Z,5.20
2018-06-05T19:04:06.182Z,4.67
2018-06-05T19:06:35.851Z,5.10
2018-06-05T19:09:07.670Z,4.40
2018-06-05T19:11:37.061Z,3.97
2018-06-05T19:14:06.448Z,4.93
2018-06-05T19:16:35.998Z,5.60
2018-06-05T19:19:05.391Z,3.93
2018-06-05T19:21:35.135Z,5.60
2018-06-05T19:24:04.541Z,4.67
2018-06-05T19:26:34.291Z,5.10
2018-06-05T19:29:03.665Z,5.33
2018-06-05T19:31:33.187Z,4.90
2018-06-05T19:34:02.563Z,5.30
2018-06-05T19:36:31.931Z,5.10
2018-06-05T19:39:01.261Z,5.13
2018-06-05T19:41:30.621Z,5.20
2018-06-05T19:43:59.913Z,4.50
2018-06-05T19:46:29.535Z,5.27
2018-06-05T19:48:58.878Z,5.00
2018-06-05T19:51:28.582Z,5.40
2018-06-05T19:53:57.910Z,5.60
2018-06-05T19:56:27.547Z,5.37
2018-06-05T19:58:57.187Z,5.13
2018-06-05T20:01:26.704Z,4.73
2018-06-05T20:03:56.138Z,5.43
2018-06-05T20:06:25.418Z,7.30
2018-06-05T20:08:54.680Z,16.40
2018-06-05T20:11:23.999Z,7.33
2018-06-05T20:13:53.247Z,6.23
2018-06-05T20:16:22.543Z,5.50
2018-06-05T20:18:51.822Z,6.30
2018-06-05T20:21:21.088Z,5.13
2018-06-05T20:23:50.398Z,5.53
2018-06-05T20:26:19.664Z,5.70
2018-06-05T20:28:48.943Z,6.23
2018-06-05T20:31:18.195Z,6.27
2018-06-05T20:33:47.492Z,6.70
2018-06-05T20:36:16.779Z,5.30
2018-06-05T20:38:46.043Z,5.60
2018-06-05T20:41:15.295Z,6.03
2018-06-05T20:43:44.586Z,5.60
2018-06-05T20:46:13.847Z,6.10
2018-06-05T20:48:43.203Z,6.00
2018-06-05T20:51:12.594Z,7.13
2018-06-05T20:53:41.892Z,6.07
2018-06-05T20:56:11.147Z,6.83
2018-06-05T20:58:40.456Z,6.47
2018-06-05T21:01:10.625Z,7.53
2018-06-05T21:03:39.977Z,7.40
2018-06-05T21:06:09.258Z,7.23
2018-06-05T21:08:38.588Z,7.20
2018-06-05T21:11:07.907Z,7.07
2018-06-05T21:13:36.891Z,7.20
2018-06-05T21:16:06.062Z,6.73
2018-06-05T21:18:35.350Z,7.43
2018-06-05T21:21:04.631Z,7.07
2018-06-05T21:23:33.943Z,7.40
2018-06-05T21:26:03.243Z,7.90
2018-06-05T21:28:32.570Z,7.70
2018-06-05T21:31:01.848Z,7.50
2018-06-05T21:33:31.170Z,7.63
2018-06-05T21:36:00.448Z,7.37
2018-06-05T21:38:29.723Z,8.17
2018-06-05T21:40:59.023Z,9.47
2018-06-05T21:43:28.304Z,8.43
2018-06-05T21:45:57.281Z,9.47
2018-06-05T21:48:26.458Z,9.77
2018-06-05T21:50:55.759Z,10.80
2018-06-05T21:53:25.055Z,11.20
2018-06-05T21:55:54.431Z,10.30
2018-06-05T21:58:23.707Z,10.50
2018-06-05T22:00:54.022Z,10.80
2018-06-05T22:03:23.294Z,9.90
2018-06-05T22:05:52.600Z,12.17
2018-06-05T22:08:21.850Z,11.23
2018-06-05T22:10:51.127Z,11.03
2018-06-05T22:13:20.383Z,10.27
2018-06-05T22:18:50.170Z,8.90
2018-06-05T22:21:19.466Z,9.20
2018-06-05T22:23:48.835Z,9.83
2018-06-05T22:26:18.300Z,8.97
2018-06-05T22:28:47.539Z,9.80
2018-06-05T22:31:16.831Z,9.43
2018-06-05T22:33:46.095Z,8.37
2018-06-05T22:36:15.351Z,9.87
2018-06-05T22:38:44.586Z,9.50
2018-06-05T22:41:13.863Z,8.60
2018-06-05T22:43:43.129Z,9.70
2018-06-05T22:46:12.427Z,10.37
2018-06-05T22:48:48.887Z,10.00
2018-06-05T22:51:18.280Z,10.80
2018-06-05T22:56:48.318Z,10.20
2018-06-05T22:59:17.625Z,10.00
2018-06-05T23:01:46.899Z,10.37
2018-06-05T23:04:16.207Z,10.07
2018-06-05T23:06:45.501Z,11.97
2018-06-05T23:09:14.812Z,11.23
2018-06-05T23:11:44.139Z,11.67
2018-06-05T23:14:13.458Z,11.07
2018-06-05T23:16:42.765Z,11.07
2018-06-05T23:19:12.063Z,10.77
2018-06-05T23:21:41.009Z,13.13
2018-06-05T23:24:10.178Z,12.50
2018-06-05T23:26:39.511Z,12.30
2018-06-05T23:29:08.836Z,11.97
2018-06-05T23:31:38.159Z,14.47
2018-06-05T23:34:07.454Z,13.03
2018-06-05T23:36:36.734Z,14.13
2018-06-05T23:39:07.456Z,14.30
2018-06-05T23:41:36.744Z,14.20
2018-06-05T23:44:06.049Z,12.10
2018-06-05T23:46:35.336Z,12.90
2018-06-05T23:49:04.735Z,12.27
2018-06-05T23:51:34.216Z,13.97
2018-06-05T23:54:03.367Z,13.47
2018-06-05T23:56:32.550Z,13.40
2018-06-05T23:59:01.875Z,13.20
